sensor_id;sensor_type;location;lat;lon;timestamp;pressure;altitude;pressure_sealevel;temperature;humidity
9281;BME280;4679;47.966;7.958;2022-11-15T07:20:15;96660.91;;;9.55;89.09
9281;BME280;4679;47.966;7.958;2022-11-15T07:22:17;96652.72;;;9.57;89.13
9281;BME280;4679;47.966;7.958;2022-11-15T07:24:19;96653.59;;;9.62;89.07
9281;BME280;4679;47.966;7.958;2022-11-15T07:26:21;96657.03;;;9.63;88.51
9281;BME280;4679;47.966;7.958;2022-11-15T07:28:22;96655.44;;;9.62;88.15
9281;BME280;4679;47.966;7.958;2022-11-15T07:30:24;96652.00;;;9.61;88.25
9281;BME280;4679;47.966;7.958;2022-11-15T07:32:27;96658.34;;;9.60;88.80
9281;BME280;4679;47.966;7.958;2022-11-15T07:34:29;96658.91;;;9.62;88.80
9281;BME280;4679;47.966;7.958;2022-11-15T07:36:32;96654.38;;;9.63;89.00
9281;BME280;4679;47.966;7.958;2022-11-15T07:38:34;96658.63;;;9.64;89.38
9281;BME280;4679;47.966;7.958;2022-11-15T07:40:36;96657.31;;;9.66;88.92
9281;BME280;4679;47.966;7.958;2022-11-15T07:42:37;96654.69;;;9.66;88.43
9281;BME280;4679;47.966;7.958;2022-11-15T07:44:55;96658.19;;;9.72;89.07
9281;BME280;4679;47.966;7.958;2022-11-15T07:46:57;96661.72;;;9.77;88.97
9281;BME280;4679;47.966;7.958;2022-11-15T07:48:58;96656.94;;;9.79;88.59
9281;BME280;4679;47.966;7.958;2022-11-15T07:51:00;96661.19;;;9.80;88.74
9281;BME280;4679;47.966;7.958;2022-11-15T07:53:03;96662.53;;;9.83;88.29
9281;BME280;4679;47.966;7.958;2022-11-15T07:55:06;96652.50;;;9.85;88.92
9281;BME280;4679;47.966;7.958;2022-11-15T07:57:08;96666.31;;;9.87;89.39
9281;BME280;4679;47.966;7.958;2022-11-15T07:59:10;96666.06;;;9.88;88.74
9281;BME280;4679;47.966;7.958;2022-11-15T08:01:12;96656.00;;;9.91;88.87
9281;BME280;4679;47.966;7.958;2022-11-15T08:03:15;96661.06;;;9.92;89.29
9281;BME280;4679;47.966;7.958;2022-11-15T08:05:17;96659.72;;;9.95;89.23
9281;BME280;4679;47.966;7.958;2022-11-15T08:07:19;96656.84;;;9.96;89.22
9281;BME280;4679;47.966;7.958;2022-11-15T08:09:22;96662.44;;;10.00;89.51
9281;BME280;4679;47.966;7.958;2022-11-15T08:11:24;96655.84;;;10.02;89.38
9281;BME280;4679;47.966;7.958;2022-11-15T08:13:25;96656.94;;;10.06;88.61
9281;BME280;4679;47.966;7.958;2022-11-15T08:15:28;96655.63;;;10.09;88.91
9281;BME280;4679;47.966;7.958;2022-11-15T08:17:29;96651.66;;;10.11;88.89
9281;BME280;4679;47.966;7.958;2022-11-15T08:19:33;96647.72;;;10.14;88.53
9281;BME280;4679;47.966;7.958;2022-11-15T08:21:34;96645.38;;;10.17;88.31
9281;BME280;4679;47.966;7.958;2022-11-15T08:23:37;96651.00;;;10.21;88.35
9281;BME280;4679;47.966;7.958;2022-11-15T08:25:41;96655.28;;;10.27;89.27
9281;BME280;4679;47.966;7.958;2022-11-15T08:27:43;96654.78;;;10.30;88.62
9281;BME280;4679;47.966;7.958;2022-11-15T08:29:45;96664.66;;;10.35;89.10
9281;BME280;4679;47.966;7.958;2022-11-15T08:31:47;96651.94;;;10.37;89.11
9281;BME280;4679;47.966;7.958;2022-11-15T08:33:49;96653.00;;;10.36;89.29
9281;BME280;4679;47.966;7.958;2022-11-15T08:35:50;96646.63;;;10.37;88.90
9281;BME280;4679;47.966;7.958;2022-11-15T08:37:52;96647.19;;;10.39;88.70
9281;BME280;4679;47.966;7.958;2022-11-15T08:39:54;96651.47;;;10.45;89.31
9281;BME280;4679;47.966;7.958;2022-11-15T08:41:57;96645.41;;;10.49;88.61
9281;BME280;4679;47.966;7.958;2022-11-15T08:43:59;96653.09;;;10.51;89.34
9281;BME280;4679;47.966;7.958;2022-11-15T08:46:01;96638.81;;;10.57;88.94
9281;BME280;4679;47.966;7.958;2022-11-15T08:48:03;96646.25;;;10.60;88.92
9281;BME280;4679;47.966;7.958;2022-11-15T08:50:06;96640.19;;;10.65;88.76
9281;BME280;4679;47.966;7.958;2022-11-15T08:52:08;96646.59;;;10.69;89.41
9281;BME280;4679;47.966;7.958;2022-11-15T08:54:10;96639.97;;;10.71;89.27
9281;BME280;4679;47.966;7.958;2022-11-15T08:56:13;96638.16;;;10.77;88.72
9281;BME280;4679;47.966;7.958;2022-11-15T08:58:17;96637.66;;;10.80;89.08
9281;BME280;4679;47.966;7.958;2022-11-15T09:00:19;96630.47;;;10.80;89.75
9281;BME280;4679;47.966;7.958;2022-11-15T09:02:21;96640.59;;;10.83;89.21
9281;BME280;4679;47.966;7.958;2022-11-15T09:04:23;96636.88;;;10.84;89.84
9281;BME280;4679;47.966;7.958;2022-11-15T09:06:25;96624.13;;;10.86;89.23
9281;BME280;4679;47.966;7.958;2022-11-15T09:08:29;96621.22;;;10.88;88.58
9281;BME280;4679;47.966;7.958;2022-11-15T09:10:32;96625.47;;;10.89;89.29
9281;BME280;4679;47.966;7.958;2022-11-15T09:12:33;96634.78;;;10.91;89.32
9281;BME280;4679;47.966;7.958;2022-11-15T09:14:37;96630.81;;;10.94;89.55
9281;BME280;4679;47.966;7.958;2022-11-15T09:16:39;96626.84;;;10.97;89.90
9281;BME280;4679;47.966;7.958;2022-11-15T09:18:41;96632.44;;;11.00;89.65
9281;BME280;4679;47.966;7.958;2022-11-15T09:20:42;96627.66;;;11.02;89.47
9281;BME280;4679;47.966;7.958;2022-11-15T09:22:44;96631.38;;;11.01;88.86
9281;BME280;4679;47.966;7.958;2022-11-15T09:24:46;96630.31;;;11.02;88.78
9281;BME280;4679;47.966;7.958;2022-11-15T09:26:49;96634.56;;;11.03;89.28
9281;BME280;4679;47.966;7.958;2022-11-15T09:28:51;96638.81;;;11.04;89.84
9281;BME280;4679;47.966;7.958;2022-11-15T09:30:57;96638.56;;;11.06;89.43
9281;BME280;4679;47.966;7.958;2022-11-15T09:33:06;96634.06;;;11.06;89.05
9281;BME280;4679;47.966;7.958;2022-11-15T09:35:08;96637.25;;;11.08;89.63
9281;BME280;4679;47.966;7.958;2022-11-15T09:37:10;96644.16;;;11.09;89.32
9281;BME280;4679;47.966;7.958;2022-11-15T09:39:12;96638.34;;;11.12;89.52
9281;BME280;4679;47.966;7.958;2022-11-15T09:44:00;96644.50;;;11.23;88.69
9281;BME280;4679;47.966;7.958;2022-11-15T09:46:15;96639.22;;;11.28;89.14
9281;BME280;4679;47.966;7.958;2022-11-15T09:48:35;96627.53;;;11.29;88.81
9281;BME280;4679;47.966;7.958;2022-11-15T09:50:43;96631.50;;;11.32;89.64
9281;BME280;4679;47.966;7.958;2022-11-15T09:52:48;96632.84;;;11.34;88.76
9281;BME280;4679;47.966;7.958;2022-11-15T09:54:51;96633.94;;;11.38;89.64
9281;BME280;4679;47.966;7.958;2022-11-15T09:56:56;96628.91;;;11.42;89.33
9281;BME280;4679;47.966;7.958;2022-11-15T09:59:16;96621.22;;;11.45;89.12
9281;BME280;4679;47.966;7.958;2022-11-15T10:01:30;96622.28;;;11.49;89.11
9281;BME280;4679;47.966;7.958;2022-11-15T10:03:38;96611.13;;;11.52;89.67
9281;BME280;4679;47.966;7.958;2022-11-15T10:05:43;96611.41;;;11.56;88.78
9281;BME280;4679;47.966;7.958;2022-11-15T10:07:50;96604.78;;;11.58;89.09
9281;BME280;4679;47.966;7.958;2022-11-15T10:10:00;96602.13;;;11.63;89.40
9281;BME280;4679;47.966;7.958;2022-11-15T10:12:03;96599.75;;;11.67;89.17
9281;BME280;4679;47.966;7.958;2022-11-15T10:14:10;96610.41;;;11.72;88.95
9281;BME280;4679;47.966;7.958;2022-11-15T10:16:26;96598.72;;;11.78;89.21
9281;BME280;4679;47.966;7.958;2022-11-15T10:18:35;96602.19;;;11.84;89.10
9281;BME280;4679;47.966;7.958;2022-11-15T10:20:44;96591.31;;;12.01;89.19
9281;BME280;4679;47.966;7.958;2022-11-15T10:22:49;96590.50;;;12.10;88.95
9281;BME280;4679;47.966;7.958;2022-11-15T10:25:04;96594.75;;;12.11;88.29
9281;BME280;4679;47.966;7.958;2022-11-15T10:27:13;96590.78;;;12.24;88.96
9281;BME280;4679;47.966;7.958;2022-11-15T10:29:18;96577.19;;;12.25;88.29
9281;BME280;4679;47.966;7.958;2022-11-15T10:31:23;96580.66;;;12.26;88.19
9281;BME280;4679;47.966;7.958;2022-11-15T10:33:31;96582.53;;;12.25;88.27
9281;BME280;4679;47.966;7.958;2022-11-15T10:35:34;96572.16;;;12.29;88.34
9281;BME280;4679;47.966;7.958;2022-11-15T10:37:35;96575.09;;;12.32;88.71
9281;BME280;4679;47.966;7.958;2022-11-15T10:39:38;96577.22;;;12.36;88.45
9281;BME280;4679;47.966;7.958;2022-11-15T10:41:42;96574.78;;;12.44;88.28
9281;BME280;4679;47.966;7.958;2022-11-15T10:43:44;96569.44;;;12.54;87.74
9281;BME280;4679;47.966;7.958;2022-11-15T10:45:46;96559.59;;;12.60;88.14
9281;BME280;4679;47.966;7.958;2022-11-15T10:47:50;96561.16;;;12.71;87.63
9281;BME280;4679;47.966;7.958;2022-11-15T10:50:02;96554.78;;;12.72;87.63
9281;BME280;4679;47.966;7.958;2022-11-15T10:52:12;96558.50;;;12.71;87.49
9281;BME280;4679;47.966;7.958;2022-11-15T10:54:22;96561.69;;;12.73;87.05
9281;BME280;4679;47.966;7.958;2022-11-15T10:56:26;96563.56;;;12.73;87.26
9281;BME280;4679;47.966;7.958;2022-11-15T10:58:35;96551.81;;;12.84;86.65
9281;BME280;4679;47.966;7.958;2022-11-15T11:00:38;96552.03;;;12.97;86.51
9281;BME280;4679;47.966;7.958;2022-11-15T11:02:45;96557.06;;;13.04;86.11
9281;BME280;4679;47.966;7.958;2022-11-15T11:04:58;96544.28;;;13.06;85.61
9281;BME280;4679;47.966;7.958;2022-11-15T11:07:01;96543.72;;;13.09;85.66
9281;BME280;4679;47.966;7.958;2022-11-15T11:09:05;96530.94;;;13.11;85.34
9281;BME280;4679;47.966;7.958;2022-11-15T11:11:07;96535.97;;;13.18;84.94
9281;BME280;4679;47.966;7.958;2022-11-15T11:13:13;96522.66;;;13.23;84.74
9281;BME280;4679;47.966;7.958;2022-11-15T11:15:16;96522.38;;;13.24;84.41
9281;BME280;4679;47.966;7.958;2022-11-15T11:17:23;96506.91;;;13.26;84.22
9281;BME280;4679;47.966;7.958;2022-11-15T11:19:46;96505.59;;;13.24;84.00
9281;BME280;4679;47.966;7.958;2022-11-15T11:21:57;96506.13;;;13.21;83.87
9281;BME280;4679;47.966;7.958;2022-11-15T11:24:08;96506.94;;;13.16;83.88
9281;BME280;4679;47.966;7.958;2022-11-15T11:26:36;96505.59;;;13.24;83.63
9281;BME280;4679;47.966;7.958;2022-11-15T11:28:45;96497.59;;;13.24;83.60
9281;BME280;4679;47.966;7.958;2022-11-15T11:31:00;96488.28;;;13.26;83.32
9281;BME280;4679;47.966;7.958;2022-11-15T11:33:13;96490.34;;;13.29;82.74
9281;BME280;4679;47.966;7.958;2022-11-15T11:35:21;96497.00;;;13.32;82.57
9281;BME280;4679;47.966;7.958;2022-11-15T11:37:29;96482.88;;;13.36;82.61
9281;BME280;4679;47.966;7.958;2022-11-15T11:39:42;96486.84;;;13.39;82.30
9281;BME280;4679;47.966;7.958;2022-11-15T11:41:55;96478.06;;;13.38;82.02
9281;BME280;4679;47.966;7.958;2022-11-15T11:44:07;96474.31;;;13.40;81.86
9281;BME280;4679;47.966;7.958;2022-11-15T11:46:28;96468.47;;;13.37;81.92
9281;BME280;4679;47.966;7.958;2022-11-15T11:48:40;96463.13;;;13.43;81.83
9281;BME280;4679;47.966;7.958;2022-11-15T11:50:44;96461.75;;;13.45;81.52
9281;BME280;4679;47.966;7.958;2022-11-15T11:52:56;96464.38;;;13.50;81.00
9281;BME280;4679;47.966;7.958;2022-11-15T11:55:12;96463.06;;;13.48;81.37
9281;BME280;4679;47.966;7.958;2022-11-15T11:57:23;96456.09;;;13.52;80.87
9281;BME280;4679;47.966;7.958;2022-11-15T11:59:31;96454.25;;;13.52;80.64
9281;BME280;4679;47.966;7.958;2022-11-15T12:01:37;96446.78;;;13.49;80.69
9281;BME280;4679;47.966;7.958;2022-11-15T12:03:43;96449.97;;;13.51;80.91
9281;BME280;4679;47.966;7.958;2022-11-15T12:05:50;96440.09;;;13.57;80.12
9281;BME280;4679;47.966;7.958;2022-11-15T12:07:56;96434.47;;;13.58;80.28
9281;BME280;4679;47.966;7.958;2022-11-15T12:10:07;96434.47;;;13.58;80.09
9281;BME280;4679;47.966;7.958;2022-11-15T12:12:19;96433.69;;;13.58;80.12
9281;BME280;4679;47.966;7.958;2022-11-15T12:14:32;96422.78;;;13.54;80.18
9281;BME280;4679;47.966;7.958;2022-11-15T12:16:35;96420.38;;;13.53;80.00
9281;BME280;4679;47.966;7.958;2022-11-15T12:18:41;96416.91;;;13.52;79.88
9281;BME280;4679;47.966;7.958;2022-11-15T12:20:52;96417.69;;;13.58;79.99
9281;BME280;4679;47.966;7.958;2022-11-15T12:22:58;96416.09;;;13.57;79.69
9281;BME280;4679;47.966;7.958;2022-11-15T12:25:13;96405.94;;;13.59;79.68
9281;BME280;4679;47.966;7.958;2022-11-15T12:27:19;96413.66;;;13.60;79.58
9281;BME280;4679;47.966;7.958;2022-11-15T12:29:26;96409.69;;;13.58;79.71
9281;BME280;4679;47.966;7.958;2022-11-15T12:31:36;96401.91;;;13.61;79.78
9281;BME280;4679;47.966;7.958;2022-11-15T12:33:41;96396.56;;;13.61;79.39
9281;BME280;4679;47.966;7.958;2022-11-15T12:35:43;96394.16;;;13.65;79.42
9281;BME280;4679;47.966;7.958;2022-11-15T12:37:58;96392.84;;;13.62;79.32
9281;BME280;4679;47.966;7.958;2022-11-15T12:40:18;96382.16;;;13.62;79.25
9281;BME280;4679;47.966;7.958;2022-11-15T12:42:40;96388.31;;;13.63;79.32
9281;BME280;4679;47.966;7.958;2022-11-15T12:44:57;96369.13;;;13.61;79.22
9281;BME280;4679;47.966;7.958;2022-11-15T12:47:13;96372.31;;;13.63;78.88
9281;BME280;4679;47.966;7.958;2022-11-15T12:49:43;96365.97;;;13.59;79.09
9281;BME280;4679;47.966;7.958;2022-11-15T12:52:05;96367.59;;;13.55;79.03
9281;BME280;4679;47.966;7.958;2022-11-15T12:59:48;96377.97;;;13.56;78.97
9281;BME280;4679;47.966;7.958;2022-11-15T13:01:57;96367.88;;;13.53;78.95
9281;BME280;4679;47.966;7.958;2022-11-15T13:04:14;96358.00;;;13.54;78.76
9281;BME280;4679;47.966;7.958;2022-11-15T13:06:38;96354.53;;;13.53;78.84
9281;BME280;4679;47.966;7.958;2022-11-15T13:08:43;96346.28;;;13.55;79.20
9281;BME280;4679;47.966;7.958;2022-11-15T13:10:47;96348.38;;;13.58;78.74
9281;BME280;4679;47.966;7.958;2022-11-15T13:12:54;96349.47;;;13.57;78.74
9281;BME280;4679;47.966;7.958;2022-11-15T13:14:58;96346.00;;;13.56;78.85
9281;BME280;4679;47.966;7.958;2022-11-15T13:17:00;96338.56;;;13.53;79.06
9281;BME280;4679;47.966;7.958;2022-11-15T13:19:03;96334.28;;;13.52;78.72
9281;BME280;4679;47.966;7.958;2022-11-15T13:21:19;96327.34;;;13.56;78.65
9281;BME280;4679;47.966;7.958;2022-11-15T13:23:40;96326.03;;;13.54;78.49
9281;BME280;4679;47.966;7.958;2022-11-15T13:28:11;96321.22;;;13.56;78.29
9281;BME280;4679;47.966;7.958;2022-11-15T13:30:21;96320.72;;;13.49;78.25
9281;BME280;4679;47.966;7.958;2022-11-15T13:32:24;96313.88;;;13.43;78.20
9281;BME280;4679;47.966;7.958;2022-11-15T13:34:31;96311.25;;;13.37;78.19
9281;BME280;4679;47.966;7.958;2022-11-15T13:36:33;96313.69;;;13.34;78.47
9281;BME280;4679;47.966;7.958;2022-11-15T13:38:37;96315.25;;;13.35;78.19
9281;BME280;4679;47.966;7.958;2022-11-15T13:40:39;96306.47;;;13.34;78.25
9281;BME280;4679;47.966;7.958;2022-11-15T13:42:41;96303.03;;;13.34;78.57
9281;BME280;4679;47.966;7.958;2022-11-15T13:44:56;96298.25;;;13.31;78.68
9281;BME280;4679;47.966;7.958;2022-11-15T13:47:03;96291.03;;;13.31;78.08
9281;BME280;4679;47.966;7.958;2022-11-15T13:49:09;96289.47;;;13.30;78.16
9281;BME280;4679;47.966;7.958;2022-11-15T13:51:17;96292.19;;;13.25;78.21
9281;BME280;4679;47.966;7.958;2022-11-15T13:53:21;96289.00;;;13.23;78.16
9281;BME280;4679;47.966;7.958;2022-11-15T13:55:23;96285.84;;;13.16;78.23
9281;BME280;4679;47.966;7.958;2022-11-15T13:57:28;96286.16;;;13.10;78.82
9281;BME280;4679;47.966;7.958;2022-11-15T13:59:33;96280.59;;;13.06;78.67
9281;BME280;4679;47.966;7.958;2022-11-15T14:01:41;96280.34;;;13.02;78.67
9281;BME280;4679;47.966;7.958;2022-11-15T14:03:49;96265.44;;;13.01;78.39
9281;BME280;4679;47.966;7.958;2022-11-15T14:06:04;96266.25;;;13.02;78.52
9281;BME280;4679;47.966;7.958;2022-11-15T14:08:22;96270.78;;;13.01;78.67
9281;BME280;4679;47.966;7.958;2022-11-15T14:10:27;96263.38;;;12.98;78.88
9281;BME280;4679;47.966;7.958;2022-11-15T14:12:31;96267.09;;;12.97;79.18
9281;BME280;4679;47.966;7.958;2022-11-15T14:14:33;96258.03;;;12.98;78.83
9281;BME280;4679;47.966;7.958;2022-11-15T14:16:48;96255.88;;;13.00;78.87
9281;BME280;4679;47.966;7.958;2022-11-15T14:18:51;96254.78;;;13.01;79.46
9281;BME280;4679;47.966;7.958;2022-11-15T14:21:05;96251.84;;;13.03;78.77
9281;BME280;4679;47.966;7.958;2022-11-15T14:23:19;96245.72;;;13.02;79.38
9281;BME280;4679;47.966;7.958;2022-11-15T14:25:22;96239.06;;;13.05;78.91
9281;BME280;4679;47.966;7.958;2022-11-15T14:27:26;96235.03;;;13.08;78.99
9281;BME280;4679;47.966;7.958;2022-11-15T14:29:29;96233.69;;;13.10;79.04
9281;BME280;4679;47.966;7.958;2022-11-15T14:31:31;96231.81;;;13.11;78.94
9281;BME280;4679;47.966;7.958;2022-11-15T14:33:35;96228.38;;;13.10;79.09
9281;BME280;4679;47.966;7.958;2022-11-15T14:35:38;96220.66;;;13.09;79.13
9281;BME280;4679;47.966;7.958;2022-11-15T14:37:40;96219.88;;;13.08;79.13
9281;BME280;4679;47.966;7.958;2022-11-15T14:39:42;96214.53;;;13.08;79.13
9281;BME280;4679;47.966;7.958;2022-11-15T14:41:43;96216.41;;;13.08;78.82
9281;BME280;4679;47.966;7.958;2022-11-15T14:43:45;96214.00;;;13.06;79.06
9281;BME280;4679;47.966;7.958;2022-11-15T14:45:47;96213.22;;;13.06;78.96
9281;BME280;4679;47.966;7.958;2022-11-15T14:47:48;96207.34;;;13.09;79.17
9281;BME280;4679;47.966;7.958;2022-11-15T14:49:51;96202.25;;;13.12;79.10
9281;BME280;4679;47.966;7.958;2022-11-15T14:51:53;96213.38;;;13.14;78.96
9281;BME280;4679;47.966;7.958;2022-11-15T14:53:55;96208.06;;;13.14;78.90
9281;BME280;4679;47.966;7.958;2022-11-15T14:55:56;96192.06;;;13.14;78.95
9281;BME280;4679;47.966;7.958;2022-11-15T14:57:58;96199.59;;;13.12;79.46
9281;BME280;4679;47.966;7.958;2022-11-15T15:00:04;96199.06;;;13.10;79.21
9281;BME280;4679;47.966;7.958;2022-11-15T15:02:11;96205.75;;;13.08;78.99
9281;BME280;4679;47.966;7.958;2022-11-15T15:04:16;96190.03;;;13.06;79.02
9281;BME280;4679;47.966;7.958;2022-11-15T15:06:19;96190.56;;;13.08;78.91
9281;BME280;4679;47.966;7.958;2022-11-15T15:08:21;96186.31;;;13.07;78.85
9281;BME280;4679;47.966;7.958;2022-11-15T15:10:23;96174.63;;;13.03;78.79
9281;BME280;4679;47.966;7.958;2022-11-15T15:12:25;96176.78;;;13.01;79.01
9281;BME280;4679;47.966;7.958;2022-11-15T15:14:27;96172.31;;;12.96;78.94
9281;BME280;4679;47.966;7.958;2022-11-15T15:16:29;96175.78;;;12.97;78.81
9281;BME280;4679;47.966;7.958;2022-11-15T15:18:30;96185.38;;;12.93;78.51
9281;BME280;4679;47.966;7.958;2022-11-15T15:20:32;96177.97;;;12.90;78.65
9281;BME280;4679;47.966;7.958;2022-11-15T15:22:35;96169.44;;;12.88;78.84
9281;BME280;4679;47.966;7.958;2022-11-15T15:24:38;96164.41;;;12.86;79.05
9281;BME280;4679;47.966;7.958;2022-11-15T15:26:39;96158.00;;;12.87;78.67
9281;BME280;4679;47.966;7.958;2022-11-15T15:28:41;96160.94;;;12.86;78.77
9281;BME280;4679;47.966;7.958;2022-11-15T15:30:43;96159.88;;;12.87;78.98
9281;BME280;4679;47.966;7.958;2022-11-15T15:32:45;96156.69;;;12.85;79.07
9281;BME280;4679;47.966;7.958;2022-11-15T15:34:46;96150.09;;;12.82;78.83
9281;BME280;4679;47.966;7.958;2022-11-15T15:36:48;96144.75;;;12.82;78.91
9281;BME280;4679;47.966;7.958;2022-11-15T15:38:51;96140.16;;;12.88;78.67
9281;BME280;4679;47.966;7.958;2022-11-15T15:40:53;96137.75;;;12.91;78.59
9281;BME280;4679;47.966;7.958;2022-11-15T15:42:55;96135.34;;;12.90;78.57
9281;BME280;4679;47.966;7.958;2022-11-15T15:44:57;96137.19;;;12.94;78.39
9281;BME280;4679;47.966;7.958;2022-11-15T15:46:58;96131.28;;;12.97;78.21
9281;BME280;4679;47.966;7.958;2022-11-15T15:49:00;96121.94;;;13.00;77.63
9281;BME280;4679;47.966;7.958;2022-11-15T15:51:02;96128.28;;;13.04;77.59
9281;BME280;4679;47.966;7.958;2022-11-15T15:53:04;96120.75;;;13.11;77.39
9281;BME280;4679;47.966;7.958;2022-11-15T15:55:09;96124.72;;;13.14;77.20
9281;BME280;4679;47.966;7.958;2022-11-15T15:57:12;96128.69;;;13.16;77.05
9281;BME280;4679;47.966;7.958;2022-11-15T15:59:14;96117.25;;;13.16;76.74
9281;BME280;4679;47.966;7.958;2022-11-15T16:01:16;96117.25;;;13.16;76.56
9281;BME280;4679;47.966;7.958;2022-11-15T16:03:17;96117.03;;;13.12;76.34
9281;BME280;4679;47.966;7.958;2022-11-15T16:05:20;96109.59;;;13.09;76.31
9281;BME280;4679;47.966;7.958;2022-11-15T16:07:22;96105.00;;;13.15;75.72
9281;BME280;4679;47.966;7.958;2022-11-15T16:09:25;96113.00;;;13.15;75.41
9281;BME280;4679;47.966;7.958;2022-11-15T16:11:43;96103.97;;;13.11;75.64
9281;BME280;4679;47.966;7.958;2022-11-15T16:13:45;96100.00;;;13.08;75.23
9281;BME280;4679;47.966;7.958;2022-11-15T16:15:49;96100.56;;;13.05;75.41
9281;BME280;4679;47.966;7.958;2022-11-15T16:17:53;96104.31;;;13.04;75.12
9281;BME280;4679;47.966;7.958;2022-11-15T16:19:55;96103.50;;;13.03;74.91
9281;BME280;4679;47.966;7.958;2022-11-15T16:21:57;96108.03;;;13.03;74.82
9281;BME280;4679;47.966;7.958;2022-11-15T16:23:59;96106.47;;;13.02;74.77
9281;BME280;4679;47.966;7.958;2022-11-15T16:26:01;96102.44;;;13.04;74.44
9281;BME280;4679;47.966;7.958;2022-11-15T16:28:07;96089.34;;;13.08;74.10
9281;BME280;4679;47.966;7.958;2022-11-15T16:30:12;96097.06;;;13.10;74.24
9281;BME280;4679;47.966;7.958;2022-11-15T16:32:16;96091.50;;;13.06;73.87
9281;BME280;4679;47.966;7.958;2022-11-15T16:34:18;96080.91;;;13.01;74.23
9281;BME280;4679;47.966;7.958;2022-11-15T16:36:22;96084.16;;;12.98;73.60
9281;BME280;4679;47.966;7.958;2022-11-15T16:38:24;96083.69;;;12.91;73.93
9281;BME280;4679;47.966;7.958;2022-11-15T16:40:27;96096.06;;;12.82;74.02
9281;BME280;4679;47.966;7.958;2022-11-15T16:42:30;96091.00;;;12.80;74.10
9281;BME280;4679;47.966;7.958;2022-11-15T16:44:33;96094.97;;;12.83;73.27
9281;BME280;4679;47.966;7.958;2022-11-15T16:46:35;96102.97;;;12.83;73.69
9281;BME280;4679;47.966;7.958;2022-11-15T16:48:38;96097.69;;;12.78;73.31
9281;BME280;4679;47.966;7.958;2022-11-15T16:50:40;96102.50;;;12.76;73.72
9281;BME280;4679;47.966;7.958;2022-11-15T16:52:42;96092.97;;;12.69;73.03
9281;BME280;4679;47.966;7.958;2022-11-15T16:54:44;96092.50;;;12.62;73.19
9281;BME280;4679;47.966;7.958;2022-11-15T16:56:46;96093.88;;;12.60;73.35
9281;BME280;4679;47.966;7.958;2022-11-15T16:58:48;96086.13;;;12.63;73.17
9281;BME280;4679;47.966;7.958;2022-11-15T17:00:51;96084.53;;;12.62;73.09
9281;BME280;4679;47.966;7.958;2022-11-15T17:02:53;96085.84;;;12.65;73.63
9281;BME280;4679;47.966;7.958;2022-11-15T17:04:55;96077.34;;;12.63;73.34
9281;BME280;4679;47.966;7.958;2022-11-15T17:06:58;96074.41;;;12.64;72.88
9281;BME280;4679;47.966;7.958;2022-11-15T17:08:59;96074.72;;;12.58;73.29
9281;BME280;4679;47.966;7.958;2022-11-15T17:11:04;96077.09;;;12.59;73.05
9281;BME280;4679;47.966;7.958;2022-11-15T17:13:06;96081.97;;;12.52;73.65
9281;BME280;4679;47.966;7.958;2022-11-15T17:15:10;96074.56;;;12.49;73.65
9281;BME280;4679;47.966;7.958;2022-11-15T17:17:13;96076.34;;;12.54;73.05
9281;BME280;4679;47.966;7.958;2022-11-15T17:19:17;96076.06;;;12.55;73.43
9281;BME280;4679;47.966;7.958;2022-11-15T17:21:20;96075.56;;;12.53;72.90
9281;BME280;4679;47.966;7.958;2022-11-15T17:23:22;96077.22;;;12.49;73.36
9281;BME280;4679;47.966;7.958;2022-11-15T17:25:24;96067.66;;;12.48;73.57
9281;BME280;4679;47.966;7.958;2022-11-15T17:27:26;96065.50;;;12.50;73.56
9281;BME280;4679;47.966;7.958;2022-11-15T17:29:28;96066.56;;;12.49;72.87
9281;BME280;4679;47.966;7.958;2022-11-15T17:31:29;96072.97;;;12.48;72.93
9281;BME280;4679;47.966;7.958;2022-11-15T17:33:34;96073.84;;;12.39;73.26
9281;BME280;4679;47.966;7.958;2022-11-15T17:35:36;96067.72;;;12.38;73.35
9281;BME280;4679;47.966;7.958;2022-11-15T17:37:38;96072.75;;;12.40;73.26
9281;BME280;4679;47.966;7.958;2022-11-15T17:39:40;96070.69;;;12.37;73.71
9281;BME280;4679;47.966;7.958;2022-11-15T17:41:42;96071.19;;;12.39;73.09
9281;BME280;4679;47.966;7.958;2022-11-15T17:43:44;96059.25;;;12.36;73.14
9281;BME280;4679;47.966;7.958;2022-11-15T17:45:46;96069.41;;;12.29;73.36
9281;BME280;4679;47.966;7.958;2022-11-15T17:47:47;96068.44;;;12.20;73.51
9281;BME280;4679;47.966;7.958;2022-11-15T17:49:51;96058.59;;;12.20;73.68
9281;BME280;4679;47.966;7.958;2022-11-15T17:51:52;96060.22;;;12.16;73.39
9281;BME280;4679;47.966;7.958;2022-11-15T17:53:54;96045.66;;;12.09;73.38
9281;BME280;4679;47.966;7.958;2022-11-15T17:56:00;96052.63;;;12.05;73.59
9281;BME280;4679;47.966;7.958;2022-11-15T17:58:03;96050.47;;;12.07;74.31
9281;BME280;4679;47.966;7.958;2022-11-15T18:00:05;96047.03;;;12.06;74.34
9281;BME280;4679;47.966;7.958;2022-11-15T18:02:08;96040.38;;;12.04;74.12
9281;BME280;4679;47.966;7.958;2022-11-15T18:04:10;96043.59;;;12.01;74.47
9281;BME280;4679;47.966;7.958;2022-11-15T18:06:16;96041.78;;;11.96;74.91
9281;BME280;4679;47.966;7.958;2022-11-15T18:08:18;96043.13;;;11.93;74.55
9281;BME280;4679;47.966;7.958;2022-11-15T18:10:21;96043.69;;;11.90;74.43
9281;BME280;4679;47.966;7.958;2022-11-15T18:12:23;96029.09;;;11.88;75.02
9281;BME280;4679;47.966;7.958;2022-11-15T18:14:25;96032.03;;;11.86;75.01
9281;BME280;4679;47.966;7.958;2022-11-15T18:16:28;96042.41;;;11.83;74.28
9281;BME280;4679;47.966;7.958;2022-11-15T18:18:31;96051.19;;;11.78;75.10
9281;BME280;4679;47.966;7.958;2022-11-15T18:20:33;96050.34;;;11.88;75.25
9281;BME280;4679;47.966;7.958;2022-11-15T18:22:36;96051.06;;;11.98;74.90
9281;BME280;4679;47.966;7.958;2022-11-15T18:24:38;96042.25;;;12.03;74.49
9281;BME280;4679;47.966;7.958;2022-11-15T18:26:42;96033.66;;;12.11;74.37
9281;BME280;4679;47.966;7.958;2022-11-15T18:28:44;96031.06;;;12.06;74.86
9281;BME280;4679;47.966;7.958;2022-11-15T18:30:46;96023.69;;;11.98;75.17
9281;BME280;4679;47.966;7.958;2022-11-15T18:32:48;96037.53;;;11.95;74.68
9281;BME280;4679;47.966;7.958;2022-11-15T18:34:51;96028.53;;;11.91;74.54
9281;BME280;4679;47.966;7.958;2022-11-15T18:36:54;96032.53;;;11.88;74.94
9281;BME280;4679;47.966;7.958;2022-11-15T18:38:59;96035.75;;;11.85;75.18
9281;BME280;4679;47.966;7.958;2022-11-15T18:41:05;96029.63;;;11.85;74.50
9281;BME280;4679;47.966;7.958;2022-11-15T18:43:07;96037.88;;;11.83;75.27
9281;BME280;4679;47.966;7.958;2022-11-15T18:45:09;96029.16;;;11.78;75.47
9281;BME280;4679;47.966;7.958;2022-11-15T18:47:11;96025.69;;;11.77;75.38
9281;BME280;4679;47.966;7.958;2022-11-15T18:49:14;96020.91;;;11.79;75.21
9281;BME280;4679;47.966;7.958;2022-11-15T18:51:19;96014.56;;;11.75;75.59